createdAt,value
2019-03-03T13:08:41.524Z,70.57
2019-03-03T13:09:42.199Z,70.78
2019-03-03T13:10:44.018Z,70.57
2019-03-03T13:11:47.948Z,71.19
2019-03-03T13:12:54.560Z,71.59
2019-03-03T13:13:45.136Z,71.70
2019-03-03T13:14:41.675Z,71.63
2019-03-03T13:15:41.783Z,71.91
2019-03-03T13:16:41.726Z,72.11
2019-03-03T13:17:47.945Z,72.21
2019-03-03T13:18:42.718Z,72.62
2019-03-03T13:19:41.391Z,71.59
2019-03-03T13:20:41.428Z,72.00
2019-03-03T13:21:41.391Z,72.75
2019-03-03T13:22:41.393Z,72.21
2019-03-03T13:23:41.612Z,71.73
2019-03-03T13:24:41.338Z,72.24
2019-03-03T13:25:41.401Z,71.94
2019-03-03T13:26:41.445Z,72.24
2019-03-03T13:27:49.669Z,72.31
2019-03-03T13:28:46.717Z,72.52
2019-03-03T13:29:41.538Z,71.70
2019-03-03T13:30:44.039Z,71.70
2019-03-03T13:31:42.223Z,71.59
2019-03-03T13:32:41.260Z,71.80
2019-03-03T13:33:41.310Z,71.59
2019-03-03T13:34:41.756Z,71.19
2019-03-03T13:35:41.491Z,71.19
2019-03-03T13:36:48.742Z,71.39
2019-03-03T13:38:11.733Z,71.29
2019-03-03T13:38:41.495Z,71.39
2019-03-03T13:39:41.166Z,70.88
2019-03-03T13:40:44.985Z,70.88
2019-03-03T13:42:12.774Z,71.09
2019-03-03T13:42:41.789Z,70.98
2019-03-03T13:43:41.245Z,70.06
2019-03-03T13:44:48.932Z,70.17
2019-03-03T13:45:45.724Z,70.17
2019-03-03T13:46:42.549Z,69.96
2019-03-03T13:47:41.122Z,69.76
2019-03-03T13:48:41.063Z,69.35
2019-03-03T13:49:42.084Z,69.65
2019-03-03T13:50:41.311Z,69.52
2019-03-03T13:51:41.033Z,68.94
2019-03-03T13:52:41.067Z,69.73
2019-03-03T13:53:41.011Z,69.73
2019-03-03T13:54:40.997Z,68.19
2019-03-03T13:55:40.990Z,69.82
2019-03-03T13:56:40.974Z,68.40
2019-03-03T13:57:40.992Z,67.99
2019-03-03T13:58:40.992Z,68.40
2019-03-03T13:59:40.949Z,68.19
2019-03-03T14:00:40.945Z,68.60
2019-03-03T14:01:43.434Z,68.60
2019-03-03T14:02:40.926Z,68.50
2019-03-03T14:03:40.958Z,68.50
2019-03-03T14:04:40.911Z,68.30
2019-03-03T14:05:40.880Z,68.50
2019-03-03T14:06:40.881Z,68.19
2019-03-03T14:07:40.892Z,68.70
2019-03-03T14:08:41.762Z,68.47
2019-03-03T14:09:40.898Z,67.85
2019-03-03T14:10:40.827Z,68.09
2019-03-03T14:11:41.763Z,67.89
2019-03-03T14:12:40.830Z,67.85
2019-03-03T14:13:41.783Z,67.85
2019-03-03T14:14:43.749Z,67.85
2019-03-03T14:15:40.766Z,67.85
2019-03-03T14:16:40.757Z,68.06
2019-03-03T14:17:40.775Z,67.96
2019-03-03T14:18:40.756Z,68.30
2019-03-03T14:19:40.727Z,67.99
2019-03-03T14:20:40.729Z,67.79
2019-03-03T14:23:21.707Z,67.55
2019-03-03T14:24:16.418Z,67.96
2019-03-03T14:25:16.375Z,68.50
2019-03-03T14:27:38.500Z,68.91
2019-03-03T14:28:46.323Z,67.85
2019-03-03T14:29:53.553Z,68.47
2019-03-03T14:30:37.687Z,68.60
2019-03-03T14:31:38.364Z,68.30
2019-03-03T14:32:50.851Z,69.73
2019-03-03T14:33:37.812Z,69.42
2019-03-03T14:34:58.799Z,69.21
2019-03-03T14:35:37.619Z,69.52
2019-03-03T14:36:39.202Z,69.32
2019-03-03T14:37:37.629Z,69.21
2019-03-03T14:38:37.647Z,69.76
2019-03-03T14:39:39.334Z,69.82
2019-03-03T14:40:37.554Z,69.86
2019-03-03T14:41:37.554Z,69.62
2019-03-03T14:42:37.341Z,69.65
2019-03-03T14:43:37.312Z,70.06
2019-03-03T14:44:37.476Z,70.06
2019-03-03T14:45:37.484Z,70.17
2019-03-03T14:46:37.511Z,70.37
2019-03-03T14:47:37.501Z,71.19
2019-03-03T14:48:38.143Z,70.37
2019-03-03T14:49:38.157Z,71.19
2019-03-03T14:50:37.253Z,70.88
2019-03-03T14:51:37.219Z,71.39
2019-03-03T14:52:37.185Z,71.19
2019-03-03T14:53:38.147Z,71.70
2019-03-03T14:54:37.195Z,72.11
2019-03-03T14:55:37.176Z,72.72
2019-03-03T14:56:37.781Z,72.92
2019-03-03T14:57:37.410Z,73.16
2019-03-03T14:58:37.127Z,73.68
2019-03-03T14:59:37.087Z,74.08
2019-03-03T15:00:37.088Z,74.15
2019-03-03T15:01:37.068Z,74.80
2019-03-03T15:02:37.076Z,75.27
2019-03-03T15:03:37.049Z,75.92
2019-03-03T15:04:37.026Z,75.92
2019-03-03T15:05:37.020Z,75.62
2019-03-03T15:06:37.042Z,76.12
2019-03-03T15:07:37.025Z,76.03
2019-03-03T15:08:37.013Z,76.12
2019-03-03T15:09:36.970Z,76.43
2019-03-03T15:10:36.970Z,76.33
2019-03-03T15:11:36.950Z,76.88
2019-03-03T15:12:37.002Z,77.08
2019-03-03T15:13:36.947Z,77.29
2019-03-03T15:14:36.916Z,78.11
2019-03-03T15:15:36.926Z,78.00
2019-03-03T15:16:36.906Z,78.20
2019-03-03T15:17:36.884Z,78.14
2019-03-03T15:18:36.907Z,78.34
2019-03-03T15:19:36.905Z,78.65
2019-03-03T15:20:36.869Z,78.96
2019-03-03T15:21:36.847Z,78.72
2019-03-03T15:22:36.860Z,79.27
2019-03-03T15:23:36.840Z,78.86
2019-03-03T15:24:36.894Z,79.27
2019-03-03T15:25:36.854Z,79.27
2019-03-03T15:26:36.833Z,79.47
2019-03-03T15:27:36.809Z,80.19
2019-03-03T15:28:36.761Z,80.08
2019-03-03T15:29:51.739Z,79.57
2019-03-03T15:30:36.787Z,79.98
2019-03-03T15:31:37.976Z,79.47
2019-03-03T15:32:36.776Z,80.19
2019-03-03T15:33:36.714Z,80.19
2019-03-03T15:34:36.728Z,80.08
2019-03-03T15:35:36.723Z,79.88
2019-03-03T15:36:36.678Z,79.98
2019-03-03T15:37:36.668Z,79.88
2019-03-03T15:38:40.948Z,80.49
2019-03-03T15:40:01.146Z,80.49
2019-03-03T15:40:36.658Z,79.88
2019-03-03T15:41:37.408Z,79.98
2019-03-03T15:42:36.633Z,79.98
2019-03-03T15:43:51.262Z,80.49
2019-03-03T15:44:36.582Z,80.60
2019-03-03T15:45:36.584Z,80.49
2019-03-03T15:46:36.587Z,80.39
2019-03-03T15:47:36.614Z,80.80
2019-03-03T15:48:36.543Z,80.39
2019-03-03T15:49:36.539Z,80.29
2019-03-03T15:50:36.550Z,80.63
2019-03-03T15:51:36.532Z,80.63
2019-03-03T15:52:36.532Z,81.15
2019-03-03T15:53:36.493Z,80.90
2019-03-03T15:54:36.489Z,81.04
2019-03-03T15:55:36.464Z,80.83
2019-03-03T15:56:36.482Z,81.04
2019-03-03T15:57:36.473Z,80.83
2019-03-03T15:58:36.457Z,81.45
2019-03-03T15:59:36.439Z,81.56
2019-03-03T16:00:36.425Z,81.65
2019-03-03T16:01:36.459Z,81.56
2019-03-03T16:02:36.767Z,82.07
2019-03-03T16:03:36.427Z,81.65
2019-03-03T16:04:37.336Z,82.10
2019-03-03T16:05:36.381Z,81.45
2019-03-03T16:06:36.420Z,81.86
2019-03-03T16:07:36.346Z,81.15
2019-03-03T16:08:36.389Z,81.45
2019-03-03T16:09:37.152Z,81.45
2019-03-03T16:10:37.305Z,81.65
2019-03-03T16:11:37.916Z,81.35
2019-03-03T16:12:36.391Z,81.76
2019-03-03T16:13:36.349Z,82.21
2019-03-03T16:14:37.155Z,82.07
2019-03-03T16:15:36.242Z,81.96
2019-03-03T16:16:36.247Z,81.86
2019-03-03T16:17:36.272Z,82.21
2019-03-03T16:18:37.649Z,82.10
2019-03-03T16:19:36.342Z,82.10
2019-03-03T16:20:36.236Z,82.62
2019-03-03T16:21:36.215Z,82.10
2019-03-03T16:22:37.245Z,82.21
2019-03-03T16:23:36.162Z,82.10
2019-03-03T16:24:38.163Z,82.10
2019-03-03T16:25:37.801Z,82.41
2019-03-03T16:26:43.698Z,82.51
2019-03-03T16:27:38.310Z,82.51
2019-03-03T16:28:38.214Z,82.51
2019-03-03T16:29:39.395Z,82.51
2019-03-03T16:30:36.294Z,82.92
2019-03-03T16:31:37.273Z,82.92
2019-03-03T16:32:36.309Z,82.82
2019-03-03T16:33:36.520Z,83.03
2019-03-03T16:34:36.310Z,83.27
2019-03-03T16:35:36.048Z,83.47
2019-03-03T16:36:36.019Z,83.23
2019-03-03T16:37:36.138Z,83.17
2019-03-03T16:38:36.857Z,83.44
2019-03-03T16:39:36.780Z,83.47
2019-03-03T16:40:39.789Z,83.23
2019-03-03T16:41:36.990Z,83.44
2019-03-03T16:42:36.754Z,83.64
2019-03-03T16:43:36.003Z,83.58
2019-03-03T16:44:35.933Z,83.54
2019-03-03T16:45:36.067Z,83.37
2019-03-03T16:46:35.924Z,83.44
2019-03-03T16:47:35.938Z,83.33
2019-03-03T16:48:35.925Z,83.44
2019-03-03T16:49:35.892Z,83.44
2019-03-03T16:50:35.866Z,83.23
2019-03-03T16:51:35.842Z,83.03
2019-03-03T16:52:35.830Z,83.13
2019-03-03T16:53:38.323Z,83.17
2019-03-03T16:54:36.682Z,83.23
2019-03-03T16:55:35.816Z,83.23
2019-03-03T16:56:36.781Z,83.17
2019-03-03T16:57:35.837Z,83.06
2019-03-03T16:58:35.789Z,83.03
2019-03-03T16:59:35.786Z,83.03
2019-03-03T17:00:35.792Z,82.92
2019-03-03T17:01:35.988Z,83.03
2019-03-03T17:02:35.749Z,82.41
2019-03-03T17:03:36.687Z,82.82
2019-03-03T17:04:35.754Z,82.51
2019-03-03T17:05:35.848Z,82.62
2019-03-03T17:06:36.182Z,82.82
2019-03-03T17:07:35.696Z,82.51
2019-03-03T17:08:36.404Z,82.71
2019-03-03T17:09:35.695Z,82.62
2019-03-03T17:10:35.685Z,82.31
2019-03-03T17:11:35.678Z,82.86
2019-03-03T17:12:35.671Z,82.71
2019-03-03T17:13:35.598Z,82.71
2019-03-03T17:14:35.594Z,82.62
2019-03-03T17:15:35.577Z,82.71
2019-03-03T17:16:35.613Z,82.71
2019-03-03T17:17:35.666Z,82.62
2019-03-03T17:18:35.706Z,82.71
2019-03-03T17:19:35.574Z,82.21
2019-03-03T17:20:43.429Z,82.21
2019-03-03T17:21:35.779Z,82.35
2019-03-03T17:22:35.770Z,82.51
2019-03-03T17:23:38.243Z,82.41
2019-03-03T17:24:35.572Z,82.76
2019-03-03T17:25:36.453Z,83.06
2019-03-03T17:26:37.499Z,82.76
2019-03-03T17:29:31.895Z,82.35
2019-03-03T17:35:26.199Z,82.24
2019-03-03T17:37:56.646Z,82.04
2019-03-03T17:38:57.103Z,81.90
2019-03-03T17:39:57.075Z,82.00
2019-03-03T17:40:56.183Z,81.79
2019-03-03T17:41:56.179Z,81.29
2019-03-03T17:42:56.822Z,81.90
2019-03-03T17:43:56.571Z,81.29
2019-03-03T17:44:56.581Z,82.00
2019-03-03T17:45:55.517Z,82.00
2019-03-03T17:46:55.877Z,82.41
2019-03-03T17:47:56.003Z,82.04
2019-03-03T17:48:56.030Z,81.79
2019-03-03T17:49:55.658Z,81.94
2019-03-03T17:50:55.704Z,81.90
2019-03-03T17:51:55.647Z,82.00
2019-03-03T17:52:55.663Z,81.94
2019-03-03T17:53:55.618Z,82.31
2019-03-03T17:54:55.682Z,82.04
2019-03-03T17:55:55.656Z,82.24
2019-03-03T17:56:55.579Z,81.94
2019-03-03T17:57:55.611Z,82.24
2019-03-03T17:58:55.581Z,82.04
2019-03-03T17:59:55.600Z,82.24
2019-03-03T18:00:55.559Z,81.94
2019-03-03T18:01:55.249Z,82.04
2019-03-03T18:02:55.866Z,81.70
2019-03-03T18:03:55.549Z,81.43
2019-03-03T18:04:55.885Z,81.79
2019-03-03T18:05:55.478Z,81.22
2019-03-03T18:06:55.500Z,81.22
2019-03-03T18:07:55.562Z,82.04
2019-03-03T18:08:55.172Z,81.38
2019-03-03T18:09:55.421Z,81.73
2019-03-03T18:10:55.495Z,81.43
2019-03-03T18:11:55.419Z,81.43
2019-03-03T18:12:55.430Z,81.73
2019-03-03T18:13:55.401Z,81.52
2019-03-03T18:14:55.407Z,81.63
2019-03-03T18:15:55.385Z,81.43
2019-03-03T18:16:55.392Z,81.43
2019-03-03T18:17:55.427Z,81.63
2019-03-03T18:18:55.384Z,81.32
2019-03-03T18:19:55.957Z,81.49
2019-03-03T18:20:55.341Z,81.73
2019-03-03T18:21:55.330Z,81.32
2019-03-03T18:22:55.347Z,81.38
2019-03-03T18:23:55.287Z,81.38
2019-03-03T18:24:55.297Z,81.08
2019-03-03T18:25:55.293Z,81.38
2019-03-03T18:26:55.607Z,81.18
2019-03-03T18:27:55.236Z,80.77
2019-03-03T18:28:55.264Z,81.29
2019-03-03T18:29:55.293Z,81.01
2019-03-03T18:30:55.216Z,80.91
2019-03-03T18:31:55.718Z,80.77
2019-03-03T18:32:55.200Z,80.77
2019-03-03T18:33:55.226Z,80.98
2019-03-03T18:34:54.895Z,80.77
2019-03-03T18:35:55.324Z,80.57
2019-03-03T18:36:55.172Z,80.77
2019-03-03T18:37:55.132Z,80.46
2019-03-03T18:38:55.154Z,80.57
2019-03-03T18:39:55.122Z,80.51
2019-03-03T18:40:55.143Z,80.57
2019-03-03T18:41:55.056Z,80.46
2019-03-03T18:42:55.066Z,80.77
2019-03-03T18:43:54.767Z,80.71
2019-03-03T18:44:54.832Z,80.77
2019-03-03T18:45:55.019Z,80.57
2019-03-03T18:46:54.825Z,81.01
2019-03-03T18:47:54.728Z,80.67
2019-03-03T18:48:54.725Z,80.57
2019-03-03T18:49:54.722Z,80.36
2019-03-03T18:50:54.744Z,80.57
2019-03-03T18:51:54.689Z,80.57
2019-03-03T18:52:54.667Z,80.88
2019-03-03T18:53:54.656Z,80.67
2019-03-03T18:54:54.656Z,80.26
2019-03-03T18:55:54.711Z,80.05
2019-03-03T18:56:54.632Z,80.51
2019-03-03T18:57:54.620Z,80.46
2019-03-03T18:58:54.602Z,80.36
2019-03-03T18:59:55.571Z,80.36
2019-03-03T19:00:54.600Z,80.19
2019-03-03T19:01:54.582Z,79.75
2019-03-03T19:02:54.559Z,79.96
2019-03-03T19:03:54.544Z,80.16
2019-03-03T19:04:54.540Z,80.36
2019-03-03T19:05:56.014Z,80.26
2019-03-03T19:06:54.515Z,80.26
2019-03-03T19:07:54.497Z,79.44
2019-03-03T19:08:54.511Z,80.36
2019-03-03T19:09:54.476Z,80.36
2019-03-03T19:10:54.479Z,80.26
2019-03-03T19:11:54.458Z,79.64
2019-03-03T19:12:54.449Z,79.75
2019-03-03T19:13:54.430Z,79.34
2019-03-03T19:14:54.420Z,79.34
2019-03-03T19:15:54.426Z,78.93
2019-03-03T19:16:54.403Z,79.13
2019-03-03T19:17:54.398Z,78.83
2019-03-03T19:18:54.379Z,79.44
2019-03-03T19:19:54.363Z,78.93
2019-03-03T19:20:54.367Z,79.13
2019-03-03T19:21:54.345Z,79.13
2019-03-03T19:22:54.332Z,79.13
2019-03-03T19:23:54.320Z,78.79
2019-03-03T19:24:54.352Z,79.03
2019-03-03T19:25:55.588Z,78.72
2019-03-03T19:27:16.622Z,78.52
2019-03-03T19:27:55.343Z,78.72
2019-03-03T19:28:54.277Z,78.72
2019-03-03T19:29:54.254Z,78.83
2019-03-03T19:30:54.333Z,78.72
2019-03-03T19:31:54.310Z,78.63
2019-03-03T19:32:54.270Z,78.52
2019-03-03T19:33:54.238Z,78.52
2019-03-03T19:34:54.218Z,78.28
2019-03-03T19:35:54.242Z,78.21
2019-03-03T19:36:54.200Z,78.31
2019-03-03T19:37:54.180Z,78.42
2019-03-03T19:38:54.164Z,78.42
2019-03-03T19:39:54.153Z,78.38
2019-03-03T19:40:54.143Z,78.42
2019-03-03T19:41:54.117Z,78.52
2019-03-03T19:42:54.104Z,78.49
2019-03-03T19:43:54.103Z,78.17
2019-03-03T19:44:54.083Z,78.63
2019-03-03T19:45:54.097Z,78.69
2019-03-03T19:46:54.062Z,78.59
2019-03-03T19:47:54.129Z,78.28
2019-03-03T19:48:54.044Z,77.67
2019-03-03T19:49:54.036Z,77.97
2019-03-03T19:50:54.043Z,77.87
2019-03-03T19:51:54.010Z,77.97
2019-03-03T19:52:53.996Z,78.01
2019-03-03T19:53:53.987Z,77.87
2019-03-03T19:54:53.980Z,77.36
2019-03-03T19:55:53.965Z,77.46
2019-03-03T19:56:53.967Z,77.15
2019-03-03T19:57:53.953Z,77.46
2019-03-03T19:58:53.929Z,77.36
2019-03-03T19:59:53.915Z,77.36
2019-03-03T20:00:53.912Z,77.36
2019-03-03T20:01:53.904Z,77.36
2019-03-03T20:02:53.880Z,77.05
2019-03-03T20:03:53.882Z,77.05
2019-03-03T20:04:53.862Z,76.95
2019-03-03T20:05:53.848Z,77.36
2019-03-03T20:06:53.853Z,77.15
2019-03-03T20:07:53.836Z,77.46
2019-03-03T20:08:53.812Z,76.64
2019-03-03T20:09:53.802Z,77.15
2019-03-03T20:10:53.795Z,77.36
2019-03-03T20:11:53.790Z,77.15
2019-03-03T20:12:53.773Z,76.95
2019-03-03T20:13:53.762Z,77.50
2019-03-03T20:14:53.742Z,77.36
2019-03-03T20:15:53.737Z,76.75
2019-03-03T20:16:55.992Z,77.15
2019-03-03T20:17:53.720Z,77.36
2019-03-03T20:18:53.704Z,76.88
2019-03-03T20:19:53.687Z,77.05
2019-03-03T20:20:53.677Z,77.05
2019-03-03T20:21:53.676Z,76.34
2019-03-03T20:22:53.655Z,76.54
2019-03-03T20:23:53.657Z,76.43
2019-03-03T20:24:53.639Z,76.54
2019-03-03T20:25:53.625Z,76.23
2019-03-03T20:26:53.654Z,76.23
2019-03-03T20:27:53.602Z,76.43
2019-03-03T20:28:53.594Z,76.54
2019-03-03T20:29:53.602Z,76.43
2019-03-03T20:30:53.568Z,76.43
2019-03-03T20:31:53.567Z,76.43
2019-03-03T20:32:53.541Z,76.54
2019-03-03T20:33:53.530Z,76.75
2019-03-03T20:34:53.527Z,76.54
2019-03-03T20:35:53.509Z,76.84
2019-03-03T20:36:53.518Z,76.43
2019-03-03T20:37:53.487Z,76.34
2019-03-03T20:38:53.473Z,77.05
2019-03-03T20:39:53.461Z,76.64
2019-03-03T20:40:53.470Z,76.34
2019-03-03T20:41:53.473Z,76.43
2019-03-03T20:42:53.433Z,76.54
2019-03-03T20:43:53.427Z,76.34
2019-03-03T20:44:53.410Z,76.03
2019-03-03T20:45:53.402Z,76.23
2019-03-03T20:46:53.389Z,76.34
2019-03-03T20:47:53.393Z,76.23
2019-03-03T20:48:53.363Z,75.93
2019-03-03T20:49:53.351Z,76.03
2019-03-03T20:50:53.340Z,76.64
2019-03-03T20:51:53.342Z,76.30
2019-03-03T20:52:53.338Z,76.03
2019-03-03T20:53:53.312Z,75.72
2019-03-03T20:54:53.298Z,75.62
2019-03-03T20:55:53.285Z,75.82
2019-03-03T20:56:53.279Z,75.89
2019-03-03T20:57:53.276Z,75.38
2019-03-03T20:58:54.093Z,75.52
2019-03-03T20:59:53.239Z,75.01
2019-03-03T21:00:53.230Z,75.01
2019-03-03T21:01:53.216Z,75.17
2019-03-03T21:02:54.142Z,75.07
2019-03-03T21:03:53.195Z,75.17
2019-03-03T21:04:53.190Z,74.87
2019-03-03T21:05:53.176Z,74.46
2019-03-03T21:06:53.158Z,74.76
2019-03-03T21:07:53.157Z,74.87
2019-03-03T21:08:53.148Z,74.87
2019-03-03T21:09:53.132Z,74.97
2019-03-03T21:10:53.114Z,74.76
2019-03-03T21:11:53.106Z,74.76
2019-03-03T21:12:53.115Z,74.66
2019-03-03T21:13:53.096Z,74.56
2019-03-03T21:14:53.101Z,74.87
2019-03-03T21:15:53.067Z,74.46
2019-03-03T21:16:53.050Z,74.56
2019-03-03T21:17:53.058Z,74.46
2019-03-03T21:18:53.027Z,74.26
2019-03-03T21:19:53.021Z,74.26
2019-03-03T21:20:53.008Z,74.35
2019-03-03T21:21:52.992Z,74.35
2019-03-03T21:22:52.998Z,74.35
2019-03-03T21:23:52.966Z,74.29
2019-03-03T21:24:52.962Z,74.35
2019-03-03T21:25:52.960Z,74.15
2019-03-03T21:26:52.965Z,73.74
2019-03-03T21:27:52.966Z,73.85
2019-03-03T21:28:52.917Z,73.94
2019-03-03T21:29:52.909Z,73.85
2019-03-03T21:30:52.900Z,73.94
2019-03-03T21:31:52.880Z,73.94
2019-03-03T21:32:52.882Z,73.74
2019-03-03T21:33:52.854Z,73.85
2019-03-03T21:34:52.846Z,73.64
2019-03-03T21:35:52.835Z,73.64
2019-03-03T21:36:52.820Z,73.64
2019-03-03T21:37:52.832Z,73.44
2019-03-03T21:38:52.807Z,73.33
2019-03-03T21:39:52.790Z,73.44
2019-03-03T21:40:52.785Z,73.33
2019-03-03T21:41:52.763Z,73.33
2019-03-03T21:42:52.782Z,73.64
2019-03-03T21:43:54.149Z,73.54
2019-03-03T21:44:52.946Z,73.33
2019-03-03T21:45:52.725Z,73.44
2019-03-03T21:46:52.734Z,73.03
2019-03-03T21:47:52.728Z,73.23
2019-03-03T21:48:52.693Z,73.44
2019-03-03T21:49:52.682Z,73.13
2019-03-03T21:50:52.686Z,73.23
2019-03-03T21:51:52.661Z,73.54
2019-03-03T21:52:52.664Z,72.92
2019-03-03T21:53:52.643Z,73.23
2019-03-03T21:54:52.649Z,73.03
2019-03-03T21:55:52.618Z,72.82
2019-03-03T21:56:52.605Z,72.82
2019-03-03T21:57:52.604Z,72.92
2019-03-03T21:58:52.583Z,72.92
2019-03-03T21:59:52.569Z,73.13
2019-03-03T22:00:52.576Z,72.82
2019-03-03T22:01:52.552Z,73.03
2019-03-03T22:02:52.550Z,72.62
2019-03-03T22:03:52.557Z,72.72
2019-03-03T22:04:52.513Z,72.82
2019-03-03T22:05:52.506Z,73.44
2019-03-03T22:06:52.488Z,73.13
2019-03-03T22:07:52.523Z,73.44
2019-03-03T22:08:52.476Z,73.64
2019-03-03T22:09:52.457Z,73.74
2019-03-03T22:10:52.444Z,73.44
2019-03-03T22:11:52.437Z,73.44
2019-03-03T22:12:52.451Z,73.23
2019-03-03T22:13:52.419Z,73.74
2019-03-03T22:14:52.399Z,73.74
2019-03-03T22:15:52.387Z,73.74
2019-03-03T22:16:52.377Z,73.74
2019-03-03T22:17:52.385Z,73.74
2019-03-03T22:18:52.364Z,73.74
2019-03-03T22:19:52.342Z,73.85
2019-03-03T22:20:52.334Z,74.15
2019-03-03T22:21:52.316Z,73.94
2019-03-03T22:22:52.305Z,74.05
2019-03-03T22:23:52.312Z,73.54
2019-03-03T22:24:52.282Z,73.85
2019-03-03T22:25:52.276Z,73.74
2019-03-03T22:26:52.259Z,74.05
2019-03-03T22:27:52.260Z,74.26
2019-03-03T22:28:52.262Z,74.56
2019-03-03T22:29:52.227Z,74.35
2019-03-03T22:30:52.218Z,74.69
2019-03-03T22:31:52.209Z,74.87
2019-03-03T22:32:52.194Z,74.87
2019-03-03T22:33:52.215Z,75.17
2019-03-03T22:34:52.173Z,75.27
2019-03-03T22:35:52.159Z,75.10
2019-03-03T22:36:52.150Z,75.31
2019-03-03T22:37:52.136Z,75.62
2019-03-03T22:38:52.139Z,75.52
2019-03-03T22:39:52.777Z,75.42
2019-03-03T22:40:52.103Z,75.42
2019-03-03T22:41:52.094Z,75.42
2019-03-03T22:42:52.078Z,75.72
2019-03-03T22:43:52.088Z,75.82
2019-03-03T22:44:52.057Z,75.62
2019-03-03T22:45:52.053Z,76.23
2019-03-03T22:46:52.040Z,75.82
2019-03-03T22:47:52.028Z,75.42
2019-03-03T22:48:52.026Z,75.82
2019-03-03T22:49:52.014Z,75.72
2019-03-03T22:50:51.991Z,75.82
2019-03-03T22:51:51.979Z,75.93
2019-03-03T22:52:51.984Z,75.62
2019-03-03T22:53:51.972Z,75.93
2019-03-03T22:54:51.948Z,76.23
2019-03-03T22:55:51.933Z,75.82
2019-03-03T22:56:51.925Z,75.52
2019-03-03T22:57:51.917Z,75.93
2019-03-03T22:58:51.911Z,75.62
2019-03-03T22:59:51.888Z,75.52
2019-03-03T23:00:51.879Z,75.82
2019-03-03T23:01:51.871Z,75.42
2019-03-03T23:02:51.855Z,75.62
2019-03-03T23:03:51.863Z,75.62
2019-03-03T23:04:51.832Z,75.42
2019-03-03T23:05:51.824Z,75.31
2019-03-03T23:06:51.813Z,75.45
2019-03-03T23:07:51.838Z,75.52
2019-03-03T23:08:51.802Z,75.42
2019-03-03T23:09:51.776Z,75.01
2019-03-03T23:10:51.766Z,74.90
2019-03-03T23:11:51.754Z,75.01
2019-03-03T23:12:51.739Z,74.90
2019-03-03T23:13:51.739Z,74.80
2019-03-03T23:14:51.721Z,74.80
2019-03-03T23:15:52.352Z,75.01
2019-03-03T23:16:51.699Z,74.60
2019-03-03T23:17:51.692Z,74.49
2019-03-03T23:18:51.677Z,74.29
2019-03-03T23:19:51.681Z,74.29
2019-03-03T23:20:51.656Z,74.29
2019-03-03T23:21:51.641Z,74.29
2019-03-03T23:22:51.632Z,73.88
2019-03-03T23:23:51.616Z,73.88
2019-03-03T23:24:51.623Z,73.78
2019-03-03T23:25:51.595Z,73.68
2019-03-03T23:26:51.594Z,73.88
2019-03-03T23:27:51.582Z,73.68
2019-03-03T23:28:51.564Z,73.78
2019-03-03T23:29:51.566Z,73.36
2019-03-03T23:30:51.541Z,73.36
2019-03-03T23:31:51.530Z,73.57
2019-03-03T23:32:51.524Z,73.47
2019-03-03T23:33:51.503Z,72.75
2019-03-03T23:34:51.504Z,73.36
2019-03-03T23:35:51.489Z,73.16
2019-03-03T23:36:51.476Z,72.75
2019-03-03T23:37:51.462Z,72.65
2019-03-03T23:38:51.451Z,72.86
2019-03-03T23:39:51.445Z,72.24
2019-03-03T23:40:51.428Z,72.34
2019-03-03T23:41:51.417Z,72.34
2019-03-03T23:42:51.413Z,72.00
2019-03-03T23:43:51.395Z,72.00
2019-03-03T23:44:51.394Z,72.00
2019-03-03T23:45:51.368Z,71.83
2019-03-03T23:46:51.362Z,72.00
2019-03-03T23:47:51.350Z,71.62
2019-03-03T23:48:51.344Z,71.70
2019-03-03T23:49:51.341Z,71.53
2019-03-03T23:50:51.316Z,71.70
2019-03-03T23:51:51.303Z,71.49
2019-03-03T23:52:51.298Z,71.70
2019-03-03T23:53:51.284Z,71.80
2019-03-03T23:54:51.290Z,71.70
2019-03-03T23:55:51.257Z,71.19
2019-03-03T23:56:51.254Z,70.88
2019-03-03T23:57:51.246Z,70.98
2019-03-03T23:58:51.233Z,70.67
2019-03-03T23:59:51.254Z,71.29
